Time;durP1;ratioP1;P1;durP2;ratioP2;P2;SDS_P1;SDS_P2;PMS_P1;PMS_P2;Temp;Humidity;BMP_temperature;BMP_pressure;BME280_temperature;BME280_humidity;BME280_pressure;Samples;Min_cycle;Max_cycle;Signal;HPM_P1;HPM_P2
2022/08/03 00:00:10;;;;;;;2.50;2.30;;;24.70;78.50;;;;;;5011266;28;20228;-74
2022/08/03 00:02:39;;;;;;;2.55;2.35;;;24.70;78.60;;;;;;5011896;28;20184;-75
2022/08/03 00:05:07;;;;;;;3.05;2.55;;;24.70;78.60;;;;;;5012161;28;20185;-74
2022/08/03 00:07:33;;;;;;;2.30;2.10;;;24.70;78.50;;;;;;5012104;28;20200;-74
2022/08/03 00:09:59;;;;;;;2.63;2.42;;;24.70;78.60;;;;;;5011263;28;20291;-74
2022/08/03 00:12:25;;;;;;;2.45;2.25;;;24.60;78.50;;;;;;5011823;28;20276;-75
2022/08/03 00:14:51;;;;;;;2.38;2.17;;;24.60;78.50;;;;;;5011670;28;20197;-75
2022/08/03 00:17:16;;;;;;;2.28;2.08;;;24.70;78.70;;;;;;5011571;28;20208;-75
2022/08/03 00:19:42;;;;;;;2.50;2.40;;;24.70;78.70;;;;;;5011659;28;20196;-75
2022/08/03 00:22:08;;;;;;;2.67;2.47;;;24.60;78.70;;;;;;5011063;28;20176;-75
2022/08/03 00:24:35;;;;;;;2.65;2.45;;;24.60;78.60;;;;;;5012006;28;20695;-75
2022/08/03 00:27:01;;;;;;;3.15;2.00;;;24.60;78.60;;;;;;5011668;28;20205;-75
2022/08/03 00:29:26;;;;;;;2.50;2.30;;;24.60;78.60;;;;;;5011607;28;20185;-75
2022/08/03 00:31:52;;;;;;;2.15;2.05;;;24.60;78.50;;;;;;5010472;28;20188;-75
2022/08/03 00:34:19;;;;;;;2.50;2.30;;;24.60;78.50;;;;;;5011320;28;20195;-75
2022/08/03 00:36:44;;;;;;;2.55;2.35;;;24.70;78.60;;;;;;5011491;28;20201;-74
2022/08/03 00:39:10;;;;;;;2.58;2.38;;;24.60;78.50;;;;;;5011151;28;20570;-75
2022/08/03 00:41:36;;;;;;;2.20;2.10;;;24.60;78.50;;;;;;5010739;28;20220;-75
2022/08/03 00:44:02;;;;;;;2.58;2.38;;;24.60;78.40;;;;;;5011388;28;20181;-74
2022/08/03 00:46:28;;;;;;;2.60;2.40;;;24.60;78.50;;;;;;5010896;28;20283;-74
2022/08/03 00:48:53;;;;;;;2.63;2.42;;;24.60;78.60;;;;;;5010922;28;20280;-75
2022/08/03 00:51:21;;;;;;;2.40;2.30;;;24.60;78.60;;;;;;5010631;28;20675;-74
2022/08/03 00:53:47;;;;;;;2.38;2.17;;;24.60;78.50;;;;;;5006813;28;20177;-75
2022/08/03 00:56:15;;;;;;;2.33;2.20;;;24.60;78.60;;;;;;4991022;28;20653;-75
2022/08/03 00:58:44;;;;;;;2.47;2.30;;;24.60;78.70;;;;;;4991326;28;20212;-74
2022/08/03 01:01:11;;;;;;;2.22;2.13;;;24.60;78.60;;;;;;4990756;28;20232;-74
2022/08/03 01:03:37;;;;;;;2.22;2.10;;;24.60;78.60;;;;;;4991300;28;20186;-74
2022/08/03 01:06:14;;;;;;;2.08;1.95;;;24.60;78.60;;;;;;4991184;28;20285;-74
2022/08/03 01:09:20;;;;;;;2.30;2.20;;;24.60;78.60;;;;;;5007750;28;20653;-74
2022/08/03 01:12:28;;;;;;;2.10;2.00;;;24.60;78.70;;;;;;4974876;28;20189;-75
2022/08/03 01:15:06;;;;;;;2.47;2.30;;;24.60;78.50;;;;;;4959932;28;20205;-75
2022/08/03 01:17:50;;;;;;;2.38;2.28;;;24.60;78.50;;;;;;4974834;28;20688;-74
2022/08/03 01:20:20;;;;;;;2.30;2.20;;;24.60;78.50;;;;;;4958000;28;20214;-75
2022/08/03 01:23:12;;;;;;;2.03;1.90;;;24.60;78.60;;;;;;4991182;28;20196;-75
2022/08/03 01:26:11;;;;;;;2.35;2.25;;;24.60;78.60;;;;;;5007365;28;20269;-74
2022/08/03 01:29:48;;;;;;;2.58;2.38;;;24.50;78.20;;;;;;4990861;28;20178;-75
2022/08/03 01:32:19;;;;;;;1.83;1.73;;;24.50;78.30;;;;;;4937699;29;20658;-75
2022/08/03 01:35:03;;;;;;;2.78;2.58;;;24.50;78.40;;;;;;4972937;28;20205;-75
2022/08/03 01:37:55;;;;;;;2.25;2.15;;;24.50;78.40;;;;;;4990938;28;20213;-75
2022/08/03 01:40:26;;;;;;;2.00;1.90;;;24.50;78.30;;;;;;4974152;28;20221;-75
2022/08/03 01:42:56;;;;;;;2.40;2.20;;;24.50;78.40;;;;;;4990929;28;20182;-75
2022/08/03 01:45:23;;;;;;;2.03;1.92;;;24.50;78.30;;;;;;4974690;28;20280;-75
2022/08/03 01:47:51;;;;;;;2.10;2.00;;;24.50;78.30;;;;;;4990406;28;20213;-75
2022/08/03 01:50:28;;;;;;;2.28;2.10;;;24.50;79.10;;;;;;4989900;28;20203;-75
2022/08/03 01:52:57;;;;;;;2.00;1.90;;;24.60;78.50;;;;;;4990388;28;20186;-75
2022/08/03 01:55:27;;;;;;;2.20;2.00;;;24.50;78.40;;;;;;4990607;28;20197;-75
2022/08/03 01:57:55;;;;;;;2.10;2.00;;;24.50;78.40;;;;;;4990385;28;20213;-75
2022/08/03 02:00:24;;;;;;;2.17;2.08;;;24.50;78.50;;;;;;4989571;28;20581;-75
2022/08/03 02:02:53;;;;;;;1.90;1.80;;;24.50;78.30;;;;;;4990247;28;20182;-75
2022/08/03 02:05:19;;;;;;;2.08;1.98;;;24.50;78.30;;;;;;4973772;28;20185;-75
2022/08/03 02:07:48;;;;;;;1.90;1.80;;;24.50;78.30;;;;;;4989891;28;20205;-75
2022/08/03 02:10:18;;;;;;;2.10;2.00;;;24.50;78.30;;;;;;4989726;28;20200;-75
2022/08/03 02:12:48;;;;;;;1.90;1.80;;;24.50;78.30;;;;;;4990290;28;20182;-75
2022/08/03 02:15:15;;;;;;;2.00;1.90;;;24.50;78.20;;;;;;4974008;28;20189;-75
2022/08/03 02:17:44;;;;;;;2.03;1.92;;;24.50;78.30;;;;;;4989732;28;20220;-75
2022/08/03 02:20:12;;;;;;;1.95;1.85;;;24.50;78.20;;;;;;4989334;28;20214;-74
2022/08/03 02:22:43;;;;;;;2.10;2.00;;;24.50;78.20;;;;;;4990232;28;20204;-75
2022/08/03 02:25:12;;;;;;;1.92;1.83;;;24.50;78.30;;;;;;4973985;28;20275;-75
2022/08/03 02:27:46;;;;;;;2.25;2.13;;;24.50;78.20;;;;;;4989842;28;20206;-75
2022/08/03 02:30:13;;;;;;;2.15;2.05;;;24.50;78.20;;;;;;4989259;28;20191;-75
2022/08/03 02:32:47;;;;;;;2.00;1.90;;;24.50;78.20;;;;;;4989624;28;20225;-75
2022/08/03 02:35:17;;;;;;;2.47;2.28;;;24.50;78.20;;;;;;4989594;28;20185;-75
2022/08/03 02:37:49;;;;;;;2.35;2.10;;;24.50;78.30;;;;;;4989379;28;20216;-75
2022/08/03 02:40:18;;;;;;;2.10;2.00;;;24.50;78.20;;;;;;5004973;28;20670;-75
2022/08/03 02:42:50;;;;;;;1.80;1.70;;;24.50;78.20;;;;;;5008703;28;20196;-75
2022/08/03 02:45:19;;;;;;;2.35;2.20;;;24.50;78.10;;;;;;5009114;28;20280;-75
2022/08/03 02:47:47;;;;;;;1.92;1.83;;;24.50;78.20;;;;;;4976366;28;20204;-75
2022/08/03 02:50:17;;;;;;;1.92;1.83;;;24.40;78.10;;;;;;4992277;28;20193;-74
2022/08/03 02:52:47;;;;;;;2.20;2.10;;;24.50;78.20;;;;;;5009228;28;20187;-75
2022/08/03 02:55:16;;;;;;;1.88;1.77;;;24.50;78.00;;;;;;4992728;28;20177;-75
2022/08/03 02:57:46;;;;;;;2.20;2.10;;;24.50;78.10;;;;;;4992558;28;20303;-75
2022/08/03 03:00:12;;;;;;;1.88;1.75;;;24.50;78.10;;;;;;5004939;28;20308;-74
2022/08/03 03:02:41;;;;;;;1.83;1.73;;;24.40;78.10;;;;;;4989350;28;20186;-74
2022/08/03 03:05:09;;;;;;;1.98;1.88;;;24.40;78.00;;;;;;4989100;28;20650;-75
2022/08/03 03:07:37;;;;;;;1.77;1.67;;;24.40;78.00;;;;;;5005398;28;20241;-75
2022/08/03 03:10:05;;;;;;;2.10;1.90;;;24.40;78.10;;;;;;4973170;28;20182;-75
2022/08/03 03:12:35;;;;;;;2.15;2.05;;;24.40;78.10;;;;;;5004694;28;20217;-75
2022/08/03 03:15:04;;;;;;;2.22;1.75;;;24.40;78.00;;;;;;4989301;28;20181;-75
2022/08/03 03:17:31;;;;;;;1.88;1.75;;;24.40;78.00;;;;;;4987996;28;20233;-75
2022/08/03 03:19:59;;;;;;;2.30;2.08;;;24.40;78.10;;;;;;4989269;28;20224;-74
2022/08/03 03:22:26;;;;;;;1.90;1.80;;;24.40;78.00;;;;;;4988364;28;20185;-75
2022/08/03 03:24:54;;;;;;;2.03;1.92;;;24.40;78.00;;;;;;4988782;28;20189;-75
2022/08/03 03:27:21;;;;;;;2.03;1.90;;;24.40;78.00;;;;;;4972406;28;20205;-74
2022/08/03 03:29:48;;;;;;;2.10;1.90;;;24.40;77.80;;;;;;4971114;28;20189;-74
2022/08/03 03:32:14;;;;;;;2.10;2.00;;;24.40;77.80;;;;;;4987766;28;20248;-75
2022/08/03 03:34:41;;;;;;;1.80;1.70;;;24.40;77.80;;;;;;4972935;28;20215;-75
2022/08/03 03:37:07;;;;;;;2.00;1.90;;;24.40;78.70;;;;;;4972833;28;20216;-74
2022/08/03 03:39:35;;;;;;;1.90;1.80;;;24.40;77.90;;;;;;4988982;28;20173;-75
2022/08/03 03:42:02;;;;;;;1.80;1.70;;;24.40;78.00;;;;;;4988046;28;20293;-75
2022/08/03 03:44:30;;;;;;;2.00;1.90;;;24.40;78.00;;;;;;4988505;28;20236;-75
2022/08/03 03:46:59;;;;;;;1.85;1.75;;;24.40;77.70;;;;;;4988728;28;20198;-75
2022/08/03 03:49:26;;;;;;;1.90;1.80;;;24.40;77.80;;;;;;4972555;28;20288;-75
2022/08/03 03:51:53;;;;;;;2.00;1.90;;;24.40;77.80;;;;;;4988312;28;20182;-74
2022/08/03 03:54:20;;;;;;;2.00;1.90;;;24.40;77.70;;;;;;4988617;28;20780;-74
2022/08/03 03:56:46;;;;;;;1.90;1.80;;;24.40;77.90;;;;;;4988401;28;20208;-75
2022/08/03 03:59:12;;;;;;;1.85;1.75;;;24.40;77.80;;;;;;4972219;28;20280;-75
2022/08/03 04:01:39;;;;;;;1.90;1.80;;;24.40;77.80;;;;;;5004540;28;20383;-75
2022/08/03 04:12:26;;;;;;;1.75;1.65;;;24.40;77.70;;;;;;4987695;28;20178;-75
2022/08/03 04:14:56;;;;;;;1.58;1.50;;;24.40;77.70;;;;;;4972122;28;20200;-75
2022/08/03 04:17:27;;;;;;;1.65;1.55;;;24.40;77.70;;;;;;4988446;28;20206;-75
2022/08/03 04:19:54;;;;;;;1.95;1.73;;;24.40;77.70;;;;;;4988583;28;20185;-75
2022/08/03 04:22:30;;;;;;;1.90;1.77;;;24.40;77.70;;;;;;4971618;28;20282;-75
2022/08/03 04:25:04;;;;;;;2.03;1.92;;;24.40;77.70;;;;;;4988241;28;20217;-75
2022/08/03 04:27:36;;;;;;;1.65;1.55;;;24.40;78.40;;;;;;4988636;28;20205;-75
2022/08/03 04:30:05;;;;;;;1.92;1.83;;;24.40;77.70;;;;;;4974260;28;20200;-75
2022/08/03 04:32:32;;;;;;;1.92;1.83;;;24.40;77.70;;;;;;4975240;28;20189;-75
2022/08/03 04:34:58;;;;;;;1.90;1.80;;;24.40;77.70;;;;;;4991969;28;20181;-75
2022/08/03 04:37:38;;;;;;;1.80;1.70;;;24.40;77.70;;;;;;4991829;28;20638;-75
2022/08/03 04:40:10;;;;;;;2.45;1.92;;;24.40;77.70;;;;;;4991765;28;20253;-75
2022/08/03 04:42:38;;;;;;;2.00;1.90;;;24.40;77.70;;;;;;4975370;28;20182;-75
2022/08/03 04:45:05;;;;;;;1.60;1.50;;;24.40;77.70;;;;;;5008079;28;20221;-75
2022/08/03 04:47:33;;;;;;;1.70;1.60;;;24.40;77.70;;;;;;4975453;28;20309;-75
2022/08/03 04:50:04;;;;;;;1.70;1.60;;;24.40;77.70;;;;;;4991696;28;20196;-75
2022/08/03 04:52:30;;;;;;;1.58;1.48;;;24.40;77.70;;;;;;4990829;28;20189;-75
2022/08/03 04:54:56;;;;;;;1.85;1.75;;;24.40;77.70;;;;;;4991322;28;20193;-75
2022/08/03 04:57:22;;;;;;;1.80;1.70;;;24.40;77.70;;;;;;4991588;28;20251;-74
2022/08/03 04:59:53;;;;;;;1.50;1.40;;;24.40;77.70;;;;;;4991116;28;20580;-75
2022/08/03 05:02:20;;;;;;;1.80;1.70;;;24.30;77.50;;;;;;5006982;28;20186;-75
2022/08/03 05:04:46;;;;;;;1.75;1.65;;;24.30;77.50;;;;;;4974859;28;20197;-75
2022/08/03 05:07:14;;;;;;;1.90;1.80;;;24.40;77.70;;;;;;4974803;28;20198;-75
2022/08/03 05:09:40;;;;;;;1.70;1.60;;;24.30;77.50;;;;;;4991051;28;20683;-74
2022/08/03 05:12:06;;;;;;;1.70;1.60;;;24.30;77.50;;;;;;4990433;28;20657;-75
2022/08/03 05:14:36;;;;;;;1.60;1.50;;;24.30;77.60;;;;;;4991428;28;20652;-75
2022/08/03 05:17:06;;;;;;;1.70;1.60;;;24.30;78.40;;;;;;4990798;28;20212;-75
2022/08/03 05:19:32;;;;;;;1.67;1.58;;;24.30;77.60;;;;;;4991279;28;20189;-75
2022/08/03 05:21:58;;;;;;;1.50;1.42;;;24.40;77.70;;;;;;4974138;28;20302;-75
2022/08/03 05:24:24;;;;;;;1.88;1.63;;;24.30;77.50;;;;;;4991457;28;20196;-75
2022/08/03 05:26:50;;;;;;;1.77;1.67;;;24.30;77.50;;;;;;4974861;28;20241;-75
2022/08/03 05:29:16;;;;;;;1.85;1.67;;;24.30;77.60;;;;;;4993449;28;20205;-74
2022/08/03 05:31:42;;;;;;;1.60;1.50;;;24.40;77.70;;;;;;4992609;28;20205;-75
2022/08/03 05:34:07;;;;;;;1.75;1.65;;;24.40;77.80;;;;;;4977695;28;20197;-75
2022/08/03 05:36:33;;;;;;;1.50;1.40;;;24.30;78.10;;;;;;4990007;28;20208;-74
2022/08/03 05:38:59;;;;;;;2.53;1.42;;;24.30;78.30;;;;;;5012135;28;20223;-75
2022/08/03 05:41:25;;;;;;;1.95;1.63;;;24.40;78.50;;;;;;5010985;28;20219;-75
2022/08/03 05:43:52;;;;;;;1.58;1.40;;;24.30;78.60;;;;;;5011043;28;20644;-75
2022/08/03 05:46:19;;;;;;;1.65;1.55;;;24.40;79.00;;;;;;5010003;28;20181;-75
2022/08/03 05:48:45;;;;;;;1.63;1.52;;;24.30;79.00;;;;;;5007449;28;20549;-75
2022/08/03 05:51:12;;;;;;;4.00;1.52;;;24.40;79.20;;;;;;5009310;28;20189;-75
2022/08/03 05:53:39;;;;;;;1.52;1.42;;;24.40;79.30;;;;;;5009805;28;20219;-75
2022/08/03 05:56:05;;;;;;;1.48;1.38;;;24.40;79.50;;;;;;4976822;28;20184;-74
2022/08/03 05:58:31;;;;;;;2.72;1.60;;;24.30;79.50;;;;;;5009841;28;20197;-75
2022/08/03 06:00:57;;;;;;;1.70;1.60;;;24.40;79.70;;;;;;5008726;28;20263;-76
2022/08/03 06:03:23;;;;;;;1.73;1.63;;;24.40;79.70;;;;;;4994748;28;20267;-74
2022/08/03 06:05:49;;;;;;;3.65;1.50;;;24.40;79.60;;;;;;4992898;28;20197;-74
2022/08/03 06:08:14;;;;;;;4.40;1.70;;;24.30;79.30;;;;;;5009676;28;20211;-75
2022/08/03 06:10:40;;;;;;;1.83;1.60;;;24.20;80.00;;;;;;5008885;28;20204;-74
2022/08/03 06:13:06;;;;;;;4.13;1.50;;;24.10;79.60;;;;;;5009610;28;20180;-74
2022/08/03 06:15:34;;;;;;;1.88;1.77;;;24.20;80.00;;;;;;5009573;28;20288;-75
2022/08/03 06:18:00;;;;;;;1.73;1.63;;;24.10;80.10;;;;;;5009268;28;20220;-75
2022/08/03 06:20:26;;;;;;;2.15;1.75;;;24.20;80.30;;;;;;5009123;28;20209;-75
2022/08/03 06:22:52;;;;;;;1.75;1.65;;;24.20;80.20;;;;;;4992351;28;20191;-75
2022/08/03 06:25:18;;;;;;;1.65;1.55;;;24.20;80.00;;;;;;5009414;28;20189;-74
2022/08/03 06:27:44;;;;;;;1.70;1.60;;;24.20;80.10;;;;;;5008673;28;20228;-75
2022/08/03 06:30:11;;;;;;;1.92;1.50;;;24.20;79.80;;;;;;5008283;28;20188;-74
2022/08/03 06:32:41;;;;;;;2.13;1.50;;;24.20;79.80;;;;;;4994366;28;20193;-75
2022/08/03 06:35:08;;;;;;;2.53;1.50;;;24.20;79.70;;;;;;4983770;28;20190;-74
2022/08/03 06:37:45;;;;;;;2.20;1.40;;;24.20;79.70;;;;;;4994714;28;20201;-74
2022/08/03 06:40:15;;;;;;;1.65;1.55;;;24.20;79.80;;;;;;5018054;28;20181;-74
2022/08/03 06:42:41;;;;;;;2.63;1.63;;;24.20;79.80;;;;;;5006561;28;20185;-75
2022/08/03 06:45:08;;;;;;;1.40;1.30;;;24.20;79.60;;;;;;5025306;28;20185;-75
2022/08/03 06:47:36;;;;;;;2.67;1.35;;;24.20;79.50;;;;;;4989011;28;20293;-75
2022/08/03 06:50:04;;;;;;;1.85;1.70;;;24.30;79.20;;;;;;4980778;28;20184;-75
2022/08/03 06:52:30;;;;;;;1.55;1.45;;;24.30;79.00;;;;;;5012250;28;20225;-75
2022/08/03 06:54:56;;;;;;;1.73;1.50;;;24.30;78.70;;;;;;4972777;28;20239;-75
2022/08/03 06:57:22;;;;;;;1.60;1.50;;;24.40;78.60;;;;;;4982282;28;20198;-74
2022/08/03 06:59:48;;;;;;;1.50;1.27;;;24.40;78.50;;;;;;4989222;28;20229;-75
2022/08/03 07:02:14;;;;;;;1.73;1.42;;;24.40;78.60;;;;;;5004118;28;20247;-75
2022/08/03 07:04:40;;;;;;;1.30;1.20;;;24.40;78.50;;;;;;5008925;28;20193;-75
2022/08/03 07:07:05;;;;;;;1.70;1.60;;;24.40;78.60;;;;;;5008331;28;20204;-75
2022/08/03 07:09:31;;;;;;;1.95;1.17;;;24.40;78.60;;;;;;5008188;28;20181;-75
2022/08/03 07:11:58;;;;;;;1.95;1.50;;;24.40;78.60;;;;;;5008134;28;20560;-75
2022/08/03 07:14:23;;;;;;;1.63;1.52;;;24.40;78.50;;;;;;4991976;28;20189;-75
2022/08/03 07:16:49;;;;;;;1.55;1.30;;;24.40;78.20;;;;;;5008435;28;20235;-75
2022/08/03 07:19:15;;;;;;;1.42;1.20;;;24.40;78.10;;;;;;4991931;28;20239;-75
2022/08/03 07:21:41;;;;;;;1.83;1.48;;;24.40;78.10;;;;;;5002817;28;20345;-74
2022/08/03 07:24:06;;;;;;;1.50;1.40;;;24.40;78.10;;;;;;4991599;28;20242;-75
2022/08/03 07:26:32;;;;;;;2.97;1.73;;;24.50;78.40;;;;;;4991996;28;20247;-75
2022/08/03 07:29:00;;;;;;;2.85;1.42;;;24.50;78.10;;;;;;5008404;28;20208;-74
2022/08/03 07:31:26;;;;;;;1.63;1.52;;;24.50;77.80;;;;;;5007648;28;20203;-74
2022/08/03 07:33:52;;;;;;;3.80;1.50;;;24.50;78.20;;;;;;5005748;28;20188;-74
2022/08/03 07:36:18;;;;;;;2.42;1.70;;;24.50;78.20;;;;;;4991485;28;20189;-74
2022/08/03 07:38:43;;;;;;;4.15;1.50;;;24.50;78.00;;;;;;4991744;28;20194;-74
2022/08/03 07:41:09;;;;;;;1.80;1.58;;;24.50;77.80;;;;;;4991388;28;20216;-74
2022/08/03 07:43:35;;;;;;;2.28;1.40;;;24.50;77.80;;;;;;5008009;28;20255;-74
2022/08/03 07:46:01;;;;;;;2.95;1.25;;;24.50;77.80;;;;;;4987891;28;20240;-74
2022/08/03 07:48:26;;;;;;;2.58;1.75;;;24.50;77.00;;;;;;4988301;28;20257;-74
2022/08/03 07:50:52;;;;;;;1.48;1.20;;;24.50;76.00;;;;;;4988154;28;20174;-74
2022/08/03 07:53:18;;;;;;;1.42;1.30;;;24.50;76.30;;;;;;4988692;28;20178;-74
2022/08/03 07:55:44;;;;;;;2.03;1.77;;;24.50;76.40;;;;;;4988277;28;20229;-74
2022/08/03 07:58:14;;;;;;;1.63;1.30;;;24.50;75.50;;;;;;4988139;28;20305;-75
2022/08/03 08:00:40;;;;;;;1.30;1.20;;;24.50;75.40;;;;;;4988031;28;20217;-74
2022/08/03 08:03:07;;;;;;;1.50;1.30;;;24.50;74.80;;;;;;4988322;28;20244;-74
2022/08/03 08:05:33;;;;;;;1.45;1.35;;;24.50;74.40;;;;;;4997762;28;20182;-74
2022/08/03 08:08:00;;;;;;;1.80;1.30;;;24.50;74.00;;;;;;4995279;28;20275;-74
2022/08/03 08:10:27;;;;;;;1.23;1.10;;;24.50;74.10;;;;;;4995313;28;20189;-74
2022/08/03 08:12:54;;;;;;;1.30;1.20;;;24.50;74.60;;;;;;4993957;28;20279;-74
2022/08/03 08:15:20;;;;;;;3.47;1.50;;;24.50;73.80;;;;;;4992087;28;20220;-74
2022/08/03 08:17:51;;;;;;;1.40;1.30;;;24.50;73.80;;;;;;4975718;28;20213;-74
2022/08/03 08:20:21;;;;;;;1.35;1.20;;;24.60;73.60;;;;;;4991993;28;20186;-74
2022/08/03 08:22:47;;;;;;;3.55;1.55;;;24.50;73.60;;;;;;4995247;28;20189;-74
2022/08/03 08:25:13;;;;;;;1.42;1.33;;;24.60;73.70;;;;;;4995005;28;20203;-74
2022/08/03 08:27:48;;;;;;;1.40;1.30;;;24.60;73.40;;;;;;5027384;28;20270;-74
2022/08/03 08:30:20;;;;;;;1.67;1.20;;;24.60;73.20;;;;;;4991357;28;20185;-74
2022/08/03 08:32:47;;;;;;;2.17;1.23;;;24.60;72.80;;;;;;4975241;28;20189;-74
2022/08/03 08:35:13;;;;;;;2.45;1.45;;;24.60;72.60;;;;;;4975481;28;20190;-74
2022/08/03 08:37:40;;;;;;;1.80;1.38;;;24.60;73.10;;;;;;4978409;28;20248;-74
2022/08/03 08:40:07;;;;;;;1.83;1.17;;;24.60;72.20;;;;;;4975277;28;20252;-74
2022/08/03 08:42:36;;;;;;;1.45;1.30;;;24.60;71.90;;;;;;4974808;28;20361;-74
2022/08/03 08:45:05;;;;;;;1.48;1.27;;;24.60;71.90;;;;;;4985218;28;20189;-73
2022/08/03 08:47:37;;;;;;;1.30;1.20;;;24.60;71.80;;;;;;5001955;28;20208;-74
2022/08/03 08:50:05;;;;;;;1.08;1.00;;;24.70;72.00;;;;;;5027492;28;20271;-74
2022/08/03 08:52:34;;;;;;;1.50;1.40;;;24.60;71.80;;;;;;5022416;28;20248;-74
2022/08/03 08:55:08;;;;;;;1.40;1.25;;;24.70;71.40;;;;;;4994326;28;20212;-74
2022/08/03 08:57:46;;;;;;;3.47;1.45;;;24.70;71.10;;;;;;4994232;28;20204;-74
2022/08/03 09:00:13;;;;;;;1.25;1.20;;;24.70;70.70;;;;;;4990093;28;20189;-74
2022/08/03 09:02:41;;;;;;;2.45;1.20;;;24.70;70.60;;;;;;4974314;28;20657;-74
2022/08/03 09:05:18;;;;;;;2.53;1.60;;;24.70;70.70;;;;;;4974825;28;20189;-74
2022/08/03 09:07:47;;;;;;;2.33;1.30;;;24.70;70.70;;;;;;4974734;28;20209;-74
2022/08/03 09:10:18;;;;;;;1.50;1.30;;;24.70;70.60;;;;;;4991062;28;20198;-74
2022/08/03 09:12:50;;;;;;;2.55;1.45;;;24.70;70.40;;;;;;4974175;28;20182;-75
2022/08/03 09:15:27;;;;;;;1.90;1.25;;;24.70;70.40;;;;;;4973658;28;20261;-74
2022/08/03 09:17:56;;;;;;;1.38;1.27;;;24.70;70.50;;;;;;4991026;28;20213;-74
2022/08/03 09:20:24;;;;;;;1.42;1.27;;;24.80;70.60;;;;;;4974819;28;20217;-74
2022/08/03 09:23:00;;;;;;;1.88;1.30;;;24.80;70.50;;;;;;4974351;28;20190;-74
2022/08/03 09:25:35;;;;;;;1.83;1.13;;;24.80;70.40;;;;;;4974685;28;20182;-74
2022/08/03 09:28:08;;;;;;;1.30;1.20;;;24.70;70.30;;;;;;4974630;28;20583;-74
2022/08/03 09:30:37;;;;;;;1.63;1.52;;;24.80;70.40;;;;;;4958436;28;20190;-74
2022/08/03 09:33:05;;;;;;;1.50;1.40;;;24.80;70.50;;;;;;4974166;28;20190;-74
2022/08/03 09:35:33;;;;;;;1.50;1.38;;;24.80;70.40;;;;;;4990773;28;20185;-72
2022/08/03 09:38:11;;;;;;;1.55;1.40;;;24.80;70.30;;;;;;4974346;28;20202;-75
2022/08/03 09:40:37;;;;;;;1.55;1.45;;;24.80;70.20;;;;;;4974220;28;20217;-74
2022/08/03 09:43:06;;;;;;;2.47;1.67;;;24.80;70.10;;;;;;4973718;28;20174;-75
2022/08/03 09:45:34;;;;;;;1.45;1.35;;;24.80;70.00;;;;;;4974122;28;20555;-74
2022/08/03 09:48:27;;;;;;;1.52;1.30;;;24.80;70.10;;;;;;4974377;28;20205;-74
2022/08/03 09:50:56;;;;;;;2.05;1.67;;;24.80;70.20;;;;;;4973590;28;20284;-72
2022/08/03 09:53:23;;;;;;;2.75;1.42;;;24.80;71.00;;;;;;4974383;28;20190;-75
2022/08/03 09:56:00;;;;;;;2.72;1.63;;;24.80;70.60;;;;;;4973839;28;20654;-72
2022/08/03 09:58:29;;;;;;;3.38;1.83;;;24.80;70.60;;;;;;4973807;28;20308;-71
2022/08/03 10:01:02;;;;;;;2.85;1.65;;;24.80;71.20;;;;;;4973155;28;20224;-73
2022/08/03 10:03:32;;;;;;;3.80;1.60;;;24.80;71.20;;;;;;4973824;28;20185;-74
2022/08/03 10:06:12;;;;;;;1.60;1.50;;;24.90;71.60;;;;;;4973684;28;20181;-74
2022/08/03 10:08:38;;;;;;;1.58;1.48;;;24.90;71.70;;;;;;4974922;28;20181;-71
2022/08/03 10:11:04;;;;;;;2.10;2.00;;;24.90;71.40;;;;;;4974340;28;20212;-70
2022/08/03 10:13:30;;;;;;;3.30;1.60;;;24.80;71.30;;;;;;4974009;28;20198;-71
2022/08/03 10:15:56;;;;;;;1.85;1.75;;;24.70;71.50;;;;;;4974510;28;20189;-75
2022/08/03 10:18:22;;;;;;;2.10;1.90;;;24.70;71.80;;;;;;4974784;28;20259;-74
2022/08/03 10:20:47;;;;;;;2.85;1.80;;;24.60;71.90;;;;;;4974075;28;20217;-74
2022/08/03 10:23:16;;;;;;;2.58;1.98;;;24.60;71.90;;;;;;4973295;28;20177;-74
2022/08/03 10:25:47;;;;;;;2.05;1.85;;;24.60;71.90;;;;;;4974061;28;20633;-74
2022/08/03 10:28:18;;;;;;;2.10;1.90;;;24.60;71.90;;;;;;4974426;28;20209;-75
2022/08/03 10:30:50;;;;;;;1.40;1.30;;;24.60;71.90;;;;;;4974390;28;20206;-74
2022/08/03 10:33:27;;;;;;;2.10;1.55;;;24.60;71.90;;;;;;4974246;28;20284;-75
2022/08/03 10:35:59;;;;;;;1.60;1.50;;;24.60;71.90;;;;;;4975632;28;20185;-75
2022/08/03 10:38:39;;;;;;;1.55;1.45;;;24.60;71.90;;;;;;4975639;28;20236;-74
2022/08/03 10:41:07;;;;;;;1.60;1.38;;;24.60;71.90;;;;;;4990256;28;20204;-74
2022/08/03 10:43:43;;;;;;;1.60;1.50;;;24.60;71.70;;;;;;4993238;28;20239;-75
2022/08/03 10:46:09;;;;;;;2.00;1.90;;;24.60;71.90;;;;;;4976297;28;20227;-73
2022/08/03 10:48:36;;;;;;;1.90;1.65;;;24.60;71.90;;;;;;5009062;28;20189;-75
2022/08/03 10:51:03;;;;;;;2.15;1.40;;;24.60;71.90;;;;;;5007023;28;20185;-74
2022/08/03 10:53:38;;;;;;;1.60;1.50;;;24.60;71.90;;;;;;5007717;28;20177;-74
2022/08/03 10:58:52;;;;;;;1.67;1.58;;;24.60;72.00;;;;;;4991222;28;20205;-74
2022/08/03 11:01:55;;;;;;;1.67;1.58;;;24.60;71.90;;;;;;5007137;28;20219;-74
2022/08/03 11:04:23;;;;;;;1.60;1.40;;;24.60;71.90;;;;;;5007571;28;20216;-75
2022/08/03 11:07:24;;;;;;;2.75;1.80;;;24.60;71.90;;;;;;4990036;28;20684;-74
2022/08/03 11:09:55;;;;;;;1.60;1.50;;;24.60;71.90;;;;;;5004582;28;20200;-75
2022/08/03 11:12:31;;;;;;;1.38;1.27;;;24.60;71.90;;;;;;4993422;28;20591;-74
2022/08/03 11:15:01;;;;;;;2.90;1.70;;;24.60;71.90;;;;;;5004436;28;20714;-74
2022/08/03 11:17:27;;;;;;;1.67;1.58;;;24.60;71.90;;;;;;4973348;28;20216;-74
2022/08/03 11:19:53;;;;;;;3.85;1.80;;;24.60;71.90;;;;;;5007237;28;20275;-74
2022/08/03 11:22:23;;;;;;;2.08;1.50;;;24.60;71.90;;;;;;4973947;28;20221;-74
2022/08/03 11:24:56;;;;;;;1.85;1.75;;;24.60;72.10;;;;;;4991224;28;20185;-74
2022/08/03 11:27:31;;;;;;;1.67;1.58;;;24.60;71.90;;;;;;4991027;28;20225;-74
2022/08/03 11:30:01;;;;;;;1.80;1.70;;;24.60;71.80;;;;;;5007871;28;20184;-74
2022/08/03 11:32:36;;;;;;;1.70;1.60;;;24.60;71.60;;;;;;4974096;28;20192;-74
2022/08/03 11:35:22;;;;;;;1.83;1.60;;;24.60;71.50;;;;;;4990930;28;20630;-74
2022/08/03 11:37:57;;;;;;;2.38;1.80;;;24.60;71.40;;;;;;5007064;28;20303;-74
2022/08/03 11:40:45;;;;;;;1.45;1.35;;;24.60;71.40;;;;;;4991241;28;20238;-74
2022/08/03 11:43:28;;;;;;;1.80;1.70;;;24.60;71.30;;;;;;4973583;28;20279;-74
2022/08/03 11:46:17;;;;;;;1.35;1.25;;;24.60;71.20;;;;;;4990495;28;20583;-74
2022/08/03 11:48:49;;;;;;;1.92;1.83;;;24.60;71.10;;;;;;5005520;28;20189;-74
2022/08/03 11:51:30;;;;;;;1.80;1.70;;;24.60;70.80;;;;;;5007008;28;20183;-75
2022/08/03 11:54:03;;;;;;;2.53;1.52;;;24.60;71.30;;;;;;5019375;28;20189;-74
2022/08/03 11:56:46;;;;;;;2.38;1.80;;;24.60;71.00;;;;;;4977248;28;20204;-74
2022/08/03 11:59:12;;;;;;;2.63;1.83;;;24.60;71.00;;;;;;5009765;28;20189;-74
2022/08/03 12:01:39;;;;;;;1.88;1.77;;;24.60;70.80;;;;;;4992249;28;20209;-74
2022/08/03 12:04:05;;;;;;;1.58;1.48;;;24.60;70.70;;;;;;4992781;28;20185;-75
2022/08/03 12:06:53;;;;;;;1.70;1.60;;;24.60;70.40;;;;;;4993059;28;20204;-75
2022/08/03 12:09:20;;;;;;;1.50;1.40;;;24.70;70.60;;;;;;4992378;28;20210;-75
2022/08/03 12:11:50;;;;;;;2.47;1.65;;;24.60;70.50;;;;;;5007702;28;20189;-74
2022/08/03 12:14:19;;;;;;;1.50;1.40;;;24.70;70.50;;;;;;4992085;28;20263;-75
2022/08/03 12:16:49;;;;;;;1.98;1.75;;;24.60;70.20;;;;;;5007960;28;20772;-74
2022/08/03 12:19:15;;;;;;;1.70;1.60;;;24.60;70.30;;;;;;4991858;28;20272;-74
2022/08/03 12:21:50;;;;;;;1.70;1.60;;;24.60;70.50;;;;;;4991168;28;20239;-74
2022/08/03 12:24:16;;;;;;;2.85;1.77;;;24.60;70.40;;;;;;4991968;28;20242;-74
2022/08/03 12:26:50;;;;;;;1.60;1.38;;;24.60;71.00;;;;;;4991424;28;20295;-75
2022/08/03 12:29:21;;;;;;;1.60;1.50;;;24.70;70.40;;;;;;5008342;28;20173;-73
2022/08/03 12:31:48;;;;;;;3.10;1.60;;;24.60;70.10;;;;;;5007688;28;20701;-75
2022/08/03 12:34:15;;;;;;;1.60;1.45;;;24.60;70.30;;;;;;5008116;28;20185;-75
2022/08/03 12:37:03;;;;;;;1.83;1.70;;;24.60;70.40;;;;;;4991903;28;20212;-74
2022/08/03 12:39:29;;;;;;;1.65;1.55;;;24.60;70.40;;;;;;5008712;28;20188;-74
2022/08/03 12:41:56;;;;;;;1.73;1.63;;;24.70;70.50;;;;;;4991202;28;20216;-74
2022/08/03 12:44:34;;;;;;;1.60;1.50;;;24.60;70.30;;;;;;4991037;28;20177;-73
2022/08/03 12:47:05;;;;;;;1.88;1.77;;;24.70;70.30;;;;;;5007144;28;20213;-74
2022/08/03 12:49:52;;;;;;;1.63;1.52;;;24.70;70.00;;;;;;5008059;28;20188;-74
2022/08/03 12:52:20;;;;;;;1.90;1.80;;;24.70;70.00;;;;;;5010134;28;20220;-73
2022/08/03 12:54:59;;;;;;;1.98;1.88;;;24.70;70.20;;;;;;5010940;28;20189;-74
2022/08/03 12:57:40;;;;;;;2.00;1.90;;;24.60;70.00;;;;;;5010988;28;20232;-74
2022/08/03 13:00:15;;;;;;;2.30;1.77;;;24.70;70.10;;;;;;5011026;28;20239;-74
2022/08/03 13:02:43;;;;;;;1.40;1.30;;;24.60;70.00;;;;;;5010154;28;20660;-74
2022/08/03 13:05:13;;;;;;;1.63;1.52;;;24.70;70.30;;;;;;5010671;28;20181;-74
2022/08/03 13:07:42;;;;;;;1.60;1.50;;;24.70;70.30;;;;;;5010701;28;20213;-74
2022/08/03 13:10:09;;;;;;;1.45;1.35;;;24.70;70.40;;;;;;5010560;28;20208;-74
2022/08/03 13:12:47;;;;;;;1.55;1.45;;;24.70;70.20;;;;;;5009950;28;20335;-74